Time;durP1;ratioP1;P1;durP2;ratioP2;P2;SDS_P1;SDS_P2;PMS_P1;PMS_P2;Temp;Humidity;BMP_temperature;BMP_pressure;BME280_temperature;BME280_humidity;BME280_pressure;Samples;Min_cycle;Max_cycle;Signal;HPM_P1;HPM_P2
2022/01/05 00:00:08;;;;;;;33.42;17.83;;;;;;;-5.31;77.19;98389.53;5023702;28;20093;-57
2022/01/05 00:02:35;;;;;;;30.02;16.05;;;;;;;-5.73;78.37;98384.47;5041325;28;20021;-58
2022/01/05 00:05:02;;;;;;;31.92;17.85;;;;;;;-5.48;78.28;98376.56;5040935;28;20107;-57
2022/01/05 00:07:29;;;;;;;40.00;19.60;;;;;;;-5.39;77.23;98354.91;5038735;28;20369;-57
2022/01/05 00:09:54;;;;;;;32.38;17.70;;;;;;;-5.33;77.16;98370.97;5041253;28;20037;-59
2022/01/05 00:12:20;;;;;;;32.15;17.52;;;;;;;-5.38;77.72;98365.84;5042839;28;20326;-59
2022/01/05 00:14:45;;;;;;;31.27;16.80;;;;;;;-5.22;77.02;98346.81;5042388;28;20033;-58
2022/01/05 00:17:11;;;;;;;33.92;18.40;;;;;;;-5.30;77.79;98354.25;5040134;28;20221;-58
2022/01/05 00:19:36;;;;;;;31.48;15.93;;;;;;;-5.55;78.27;98358.78;5041438;28;20139;-58
2022/01/05 00:22:03;;;;;;;34.10;17.52;;;;;;;-5.44;78.05;98364.06;5040595;28;20033;-58
2022/01/05 00:24:29;;;;;;;30.90;16.67;;;;;;;-5.24;77.73;98368.66;5042125;28;20033;-58
2022/01/05 00:26:55;;;;;;;36.15;18.10;;;;;;;-5.11;78.08;98374.78;5039043;28;20071;-58
2022/01/05 00:29:21;;;;;;;31.35;17.05;;;;;;;-5.40;76.84;98382.59;5040081;28;20222;-58
2022/01/05 00:31:46;;;;;;;38.00;17.42;;;;;;;-5.50;78.24;98366.44;5040880;28;20025;-58
2022/01/05 00:34:12;;;;;;;30.85;17.10;;;;;;;-5.27;78.13;98371.13;5041407;28;20029;-57
2022/01/05 00:36:39;;;;;;;35.13;18.58;;;;;;;-5.49;78.22;98360.56;5038585;28;20215;-57
2022/01/05 00:39:04;;;;;;;33.30;17.48;;;;;;;-5.27;78.41;98364.41;5039976;28;20037;-58
2022/01/05 00:41:30;;;;;;;27.83;16.17;;;;;;;-5.28;77.02;98356.81;5040603;28;20021;-57
2022/01/05 00:43:55;;;;;;;35.28;16.67;;;;;;;-5.31;77.19;98351.69;5040975;28;20025;-58
2022/01/05 00:46:21;;;;;;;32.40;17.95;;;;;;;-5.50;77.89;98321.06;5038817;28;20063;-58
2022/01/05 00:48:47;;;;;;;32.45;18.02;;;;;;;-5.45;79.14;98342.16;5042446;28;20202;-57
2022/01/05 00:51:14;;;;;;;27.98;15.73;;;;;;;-5.15;77.52;98337.69;5040826;28;20032;-57
2022/01/05 00:53:40;;;;;;;31.17;16.60;;;;;;;-4.95;76.66;98354.06;5042023;28;20036;-57
2022/01/05 00:56:05;;;;;;;32.95;16.77;;;;;;;-5.18;75.52;98346.06;5040861;28;20021;-58
2022/01/05 00:58:32;;;;;;;34.65;16.92;;;;;;;-5.51;77.26;98348.78;5039441;28;20026;-57
2022/01/05 01:00:58;;;;;;;36.10;17.55;;;;;;;-5.40;78.76;98347.28;5040273;28;20037;-58
2022/01/05 01:03:26;;;;;;;31.38;17.10;;;;;;;-5.53;77.79;98346.19;5039589;28;20021;-58
2022/01/05 01:05:52;;;;;;;32.53;17.92;;;;;;;-5.59;78.33;98351.13;5040208;28;20310;-58
2022/01/05 01:08:18;;;;;;;33.00;17.13;;;;;;;-5.61;79.18;98347.72;5040032;28;20063;-58
2022/01/05 01:10:44;;;;;;;37.72;18.30;;;;;;;-5.49;78.78;98345.44;5042898;28;20017;-57
2022/01/05 01:13:09;;;;;;;34.67;17.08;;;;;;;-5.44;77.75;98343.03;5041849;28;20026;-58
2022/01/05 01:15:35;;;;;;;33.50;17.95;;;;;;;-5.41;77.80;98353.19;5041663;28;20060;-57
2022/01/05 01:18:00;;;;;;;34.70;17.10;;;;;;;-5.50;78.79;98342.88;5043197;28;20306;-57
2022/01/05 01:20:26;;;;;;;34.80;18.55;;;;;;;-5.41;78.01;98348.97;5056614;28;20025;-58
2022/01/05 01:22:52;;;;;;;36.55;18.05;;;;;;;-5.45;77.80;98337.13;5040660;28;20058;-59
2022/01/05 01:25:18;;;;;;;34.42;18.20;;;;;;;-5.31;77.23;98336.56;5039534;28;20423;-58
2022/01/05 01:27:44;;;;;;;37.08;18.90;;;;;;;-5.41;79.01;98340.56;5056523;28;20060;-58
2022/01/05 01:30:11;;;;;;;32.20;18.17;;;;;;;-5.22;78.13;98349.34;5055843;28;20071;-57
2022/01/05 01:32:38;;;;;;;37.63;18.90;;;;;;;-5.05;77.85;98322.75;5055355;28;20094;-58
2022/01/05 01:35:05;;;;;;;37.63;18.45;;;;;;;-5.25;76.92;98311.44;5049625;28;20029;-57
2022/01/05 01:37:31;;;;;;;36.22;18.55;;;;;;;-5.25;78.77;98321.53;5049235;28;20045;-58
2022/01/05 01:39:56;;;;;;;29.95;17.00;;;;;;;-5.25;78.10;98327.41;5045437;28;20318;-58
2022/01/05 01:42:22;;;;;;;34.95;17.40;;;;;;;-5.32;78.01;98320.56;5053240;28;20044;-58
2022/01/05 01:44:47;;;;;;;37.17;17.98;;;;;;;-5.41;77.96;98306.09;5054706;28;20039;-59
2022/01/05 01:47:13;;;;;;;36.88;18.95;;;;;;;-5.10;79.16;98301.63;5040602;28;20044;-57
2022/01/05 01:49:39;;;;;;;39.45;18.05;;;;;;;-5.09;78.20;98302.47;5048861;28;20097;-58
2022/01/05 01:52:05;;;;;;;31.00;17.88;;;;;;;-5.26;78.65;98300.50;5030342;28;20049;-57
2022/01/05 01:54:31;;;;;;;36.78;18.88;;;;;;;-5.55;78.92;98283.13;5053193;28;20033;-58
2022/01/05 01:56:59;;;;;;;35.17;18.73;;;;;;;-5.86;79.14;98210.22;5054208;28;20044;-57
2022/01/05 01:59:25;;;;;;;36.67;18.80;;;;;;;-5.53;79.28;98287.34;5055443;28;20020;-58
2022/01/05 02:01:51;;;;;;;33.85;17.88;;;;;;;-5.58;78.81;98279.69;5047697;28;20033;-58
2022/01/05 02:04:16;;;;;;;37.70;17.88;;;;;;;-5.42;78.31;98280.84;5045592;28;20309;-57
2022/01/05 02:06:42;;;;;;;33.78;18.70;;;;;;;-5.35;79.36;98276.78;5055613;28;20020;-58
2022/01/05 02:09:08;;;;;;;34.97;18.83;;;;;;;-5.49;78.43;98279.03;5055371;28;20304;-58
2022/01/05 02:11:38;;;;;;;39.00;18.45;;;;;;;-5.27;78.68;98270.22;5056989;28;20037;-58
2022/01/05 02:14:03;;;;;;;34.47;18.65;;;;;;;-5.43;78.75;98266.53;5057682;28;20040;-58
2022/01/05 02:16:30;;;;;;;34.10;19.27;;;;;;;-5.21;78.61;98277.88;5040521;28;20097;-58
2022/01/05 02:18:59;;;;;;;33.25;18.40;;;;;;;-5.09;78.37;98277.25;5054745;28;20081;-58
2022/01/05 02:21:32;;;;;;;35.75;17.48;;;;;;;-5.52;79.37;98267.19;5041709;28;20238;-58
2022/01/05 02:23:58;;;;;;;40.25;19.92;;;;;;;-5.27;77.38;98267.69;5051857;28;20259;-58
2022/01/05 02:26:24;;;;;;;35.95;18.80;;;;;;;-5.60;78.94;98261.16;5055087;28;20029;-59
2022/01/05 02:28:50;;;;;;;39.28;20.42;;;;;;;-5.58;79.59;98257.00;5047930;28;20053;-58
2022/01/05 02:31:16;;;;;;;36.83;19.70;;;;;;;-5.61;79.30;98262.00;5038900;28;20025;-58
2022/01/05 02:33:42;;;;;;;43.17;20.52;;;;;;;-5.38;78.66;98264.94;5042772;28;20195;-58
2022/01/05 02:36:08;;;;;;;38.58;18.83;;;;;;;-5.57;78.91;98248.63;5055390;28;20055;-59
2022/01/05 02:38:34;;;;;;;41.38;20.45;;;;;;;-5.54;78.34;98263.81;5040822;28;20041;-58
2022/01/05 02:41:08;;;;;;;41.83;20.75;;;;;;;-5.62;79.44;98277.94;5039987;28;20078;-58
2022/01/05 02:43:38;;;;;;;41.03;19.95;;;;;;;-5.54;80.16;98241.13;5056155;28;20037;-58
2022/01/05 02:46:05;;;;;;;43.13;20.38;;;;;;;-5.63;79.46;98240.91;5040915;28;20029;-58
2022/01/05 02:48:32;;;;;;;42.30;19.63;;;;;;;-5.57;79.81;98233.50;5041007;28;20025;-58
2022/01/05 02:50:58;;;;;;;42.53;20.30;;;;;;;-5.34;79.93;98243.13;5051508;28;20028;-58
2022/01/05 02:53:24;;;;;;;38.13;20.40;;;;;;;-5.31;79.37;98233.97;5050793;28;20036;-58
2022/01/05 02:55:52;;;;;;;40.03;20.85;;;;;;;-5.69;81.04;98197.94;5054898;28;20241;-58
2022/01/05 02:58:18;;;;;;;43.85;21.15;;;;;;;-5.26;79.78;98232.38;5050275;28;20022;-58
2022/01/05 03:00:44;;;;;;;38.75;20.15;;;;;;;-5.32;79.22;98224.69;5041026;28;20033;-59
2022/01/05 03:03:09;;;;;;;45.10;21.17;;;;;;;-5.26;80.19;98229.00;5043146;28;20025;-59
2022/01/05 03:05:35;;;;;;;40.90;20.73;;;;;;;-5.45;80.43;98223.63;5060980;28;20032;-58
2022/01/05 03:08:01;;;;;;;46.05;20.88;;;;;;;-5.43;79.82;98227.03;5043312;28;20102;-58
2022/01/05 03:10:26;;;;;;;41.15;21.50;;;;;;;-5.41;80.51;98211.94;5059123;28;20025;-58
2022/01/05 03:12:52;;;;;;;47.13;21.80;;;;;;;-5.37;81.72;98226.28;5058468;28;20317;-58
2022/01/05 03:15:18;;;;;;;45.65;22.23;;;;;;;-5.33;80.29;98220.50;5058116;28;20041;-58
2022/01/05 03:17:44;;;;;;;36.70;19.60;;;;;;;-5.39;80.89;98227.94;5058325;28;20029;-58
2022/01/05 03:20:11;;;;;;;42.13;21.48;;;;;;;-5.27;81.01;98220.59;5058007;28;20222;-58
2022/01/05 03:22:37;;;;;;;42.95;20.95;;;;;;;-5.33;79.96;98207.88;5058063;28;20223;-61
2022/01/05 03:25:05;;;;;;;40.65;20.73;;;;;;;-5.84;79.86;98158.16;5054241;28;20057;-59
2022/01/05 03:27:32;;;;;;;46.88;21.77;;;;;;;-5.27;78.93;98232.38;5042355;28;20311;-58
2022/01/05 03:29:57;;;;;;;40.03;20.92;;;;;;;-5.24;79.91;98219.78;5042498;28;20083;-58
2022/01/05 03:32:27;;;;;;;40.70;21.08;;;;;;;-5.21;79.48;98240.03;5060170;28;20033;-58
2022/01/05 03:34:52;;;;;;;41.80;21.52;;;;;;;-5.25;80.18;98216.41;5040235;28;20047;-58
2022/01/05 03:37:18;;;;;;;46.30;20.88;;;;;;;-5.60;80.61;98206.53;5056813;28;20040;-58
2022/01/05 03:39:44;;;;;;;36.75;20.35;;;;;;;-5.48;80.07;98202.56;5057682;28;20029;-57
2022/01/05 03:42:09;;;;;;;44.20;21.15;;;;;;;-5.39;80.06;98203.56;5047744;28;20053;-57
2022/01/05 03:44:35;;;;;;;29.40;14.25;;;;;;;-5.72;80.79;98204.63;5051149;28;20274;-58
2022/01/05 03:47:01;;;;;;;42.22;20.65;;;;;;;-5.49;80.97;98206.72;5057466;28;20083;-58
2022/01/05 03:49:27;;;;;;;42.40;20.50;;;;;;;-5.28;79.71;98192.81;5048389;28;20135;-60
2022/01/05 03:51:52;;;;;;;42.75;21.85;;;;;;;-5.37;79.59;98180.91;5043192;28;20033;-58
2022/01/05 03:54:18;;;;;;;37.10;19.75;;;;;;;-5.40;81.05;98201.00;5042202;28;20056;-58
2022/01/05 03:56:44;;;;;;;38.60;20.08;;;;;;;-5.35;79.32;98204.47;5059915;28;20025;-58
2022/01/05 03:59:10;;;;;;;42.10;19.55;;;;;;;-5.22;79.19;98203.00;5046864;28;20237;-59
2022/01/05 04:01:36;;;;;;;41.60;19.90;;;;;;;-5.21;78.49;98192.09;5052184;28;20262;-58
2022/01/05 04:04:02;;;;;;;39.03;19.77;;;;;;;-5.43;79.20;98171.53;5057181;28;20033;-57
2022/01/05 04:06:27;;;;;;;37.83;20.85;;;;;;;-5.42;80.12;98195.91;5052713;28;20040;-58
2022/01/05 04:08:53;;;;;;;42.35;19.10;;;;;;;-5.25;79.89;98183.59;5049077;28;20097;-58
2022/01/05 04:11:19;;;;;;;38.28;18.25;;;;;;;-5.46;78.99;98183.25;5041074;28;20131;-57
2022/01/05 04:13:44;;;;;;;42.53;19.50;;;;;;;-5.21;80.99;98190.41;5044832;28;20318;-56
2022/01/05 04:16:10;;;;;;;39.78;19.50;;;;;;;-5.37;79.25;98184.25;5054793;28;20025;-56
2022/01/05 04:18:36;;;;;;;37.55;19.10;;;;;;;-5.34;80.40;98185.13;5041717;28;20246;-57
2022/01/05 04:21:02;;;;;;;43.90;20.73;;;;;;;-5.05;79.99;98194.03;5059011;28;20021;-57
2022/01/05 04:23:27;;;;;;;36.55;18.30;;;;;;;-5.25;80.95;98185.28;5053514;28;20048;-58
2022/01/05 04:25:53;;;;;;;35.88;17.75;;;;;;;-5.06;79.95;98191.47;5041379;28;20037;-58
2022/01/05 04:28:19;;;;;;;36.70;18.60;;;;;;;-5.12;79.31;98187.19;5041465;28;20084;-58
2022/01/05 04:30:44;;;;;;;37.10;18.83;;;;;;;-5.14;79.52;98183.81;5052430;28;20084;-58
2022/01/05 04:33:10;;;;;;;38.08;19.30;;;;;;;-4.99;80.00;98180.66;5049275;28;20018;-58
2022/01/05 04:35:35;;;;;;;39.83;19.58;;;;;;;-5.02;80.06;98178.09;5042508;28;20037;-57
2022/01/05 04:38:01;;;;;;;43.67;18.67;;;;;;;-5.35;79.92;98178.41;5041949;28;20053;-58
2022/01/05 04:40:28;;;;;;;30.15;16.98;;;;;;;-5.30;78.75;98161.66;5042318;28;20025;-58
2022/01/05 04:42:53;;;;;;;40.25;20.35;;;;;;;-5.13;79.39;98162.78;5041122;28;20108;-57
2022/01/05 04:45:19;;;;;;;35.75;17.35;;;;;;;-5.57;80.12;98155.31;5052917;28;20075;-58
2022/01/05 04:47:44;;;;;;;38.50;19.05;;;;;;;-5.50;80.62;98159.66;5059030;28;20347;-58
2022/01/05 04:50:14;;;;;;;41.03;19.30;;;;;;;-5.40;79.38;98163.16;5041157;28;20033;-57
2022/01/05 04:52:39;;;;;;;37.03;19.58;;;;;;;-5.28;80.11;98172.63;5043170;28;20120;-57
2022/01/05 04:55:05;;;;;;;31.13;15.15;;;;;;;-5.62;79.93;98174.56;5052221;28;20032;-57
2022/01/05 04:57:31;;;;;;;35.45;18.23;;;;;;;-5.64;78.66;98161.06;5056182;28;20035;-57
2022/01/05 04:59:57;;;;;;;37.15;18.23;;;;;;;-5.26;79.53;98164.28;5055292;28;20252;-58
2022/01/05 05:02:22;;;;;;;39.13;18.90;;;;;;;-5.27;79.68;98162.56;5053668;28;20340;-58
2022/01/05 05:04:48;;;;;;;35.88;17.83;;;;;;;-5.13;79.28;98166.97;5056179;28;20022;-58
2022/01/05 05:07:13;;;;;;;33.85;17.70;;;;;;;-5.40;79.08;98161.50;5055981;28;20029;-57
2022/01/05 05:09:39;;;;;;;30.80;17.10;;;;;;;-5.54;78.66;98152.84;5057422;28;20039;-57
2022/01/05 05:12:05;;;;;;;35.00;17.77;;;;;;;-5.73;80.17;98162.59;5040893;28;20037;-57
2022/01/05 05:14:30;;;;;;;35.78;18.73;;;;;;;-5.41;79.81;98159.78;5055045;28;20096;-57
2022/01/05 05:16:56;;;;;;;36.33;17.50;;;;;;;-5.32;79.19;98158.25;5055442;28;20108;-58
2022/01/05 05:19:21;;;;;;;31.38;15.68;;;;;;;-5.68;80.39;98152.59;5054329;28;20078;-58
2022/01/05 05:21:47;;;;;;;32.28;15.88;;;;;;;-5.76;80.71;98142.38;5054426;28;20029;-57
2022/01/05 05:24:15;;;;;;;29.83;15.30;;;;;;;-5.53;79.77;98139.41;5055281;28;20036;-57
2022/01/05 05:26:40;;;;;;;34.53;16.23;;;;;;;-5.35;79.12;98136.34;5051865;28;20029;-58
2022/01/05 05:29:06;;;;;;;32.85;16.70;;;;;;;-5.33;79.67;98139.75;5042844;28;20029;-57
2022/01/05 05:31:31;;;;;;;31.65;16.48;;;;;;;-5.60;80.20;98130.91;5056639;28;20039;-58
2022/01/05 05:33:57;;;;;;;29.85;16.30;;;;;;;-5.63;79.54;98128.31;5035221;28;20214;-58
2022/01/05 05:36:23;;;;;;;35.35;15.40;;;;;;;-5.65;79.17;98114.00;5057228;28;20222;-58
2022/01/05 05:38:48;;;;;;;34.63;17.00;;;;;;;-5.53;78.57;98111.66;5041454;28;20376;-58
2022/01/05 05:41:14;;;;;;;31.65;16.58;;;;;;;-5.48;78.61;98112.59;5048385;28;20255;-57
2022/01/05 05:43:39;;;;;;;34.08;16.65;;;;;;;-5.66;78.41;98097.16;5051686;28;20029;-58
2022/01/05 05:46:05;;;;;;;18.55;8.20;;;;;;;-6.04;79.71;98098.22;5046452;28;20029;-57
2022/01/05 05:48:30;;;;;;;33.13;16.42;;;;;;;-5.66;80.90;98097.16;5046747;28;20519;-58
2022/01/05 05:50:56;;;;;;;34.10;16.00;;;;;;;-5.59;78.81;98092.22;5051353;28;20267;-58
2022/01/05 05:53:23;;;;;;;28.40;15.77;;;;;;;-5.65;78.50;98081.22;5042031;28;20329;-57
2022/01/05 05:55:48;;;;;;;28.33;13.70;;;;;;;-5.76;78.49;98094.50;5055708;28;20218;-58
2022/01/05 05:58:14;;;;;;;27.25;13.63;;;;;;;-5.94;79.14;98087.44;5056422;28;20017;-58
2022/01/05 06:00:39;;;;;;;29.17;13.55;;;;;;;-6.07;80.72;98083.00;5040363;28;20030;-58
2022/01/05 06:03:05;;;;;;;30.38;15.15;;;;;;;-6.07;80.95;98071.28;5038679;28;20038;-58
2022/01/05 06:05:30;;;;;;;31.95;16.20;;;;;;;-5.90;81.20;98064.00;5053317;28;20029;-57
2022/01/05 06:07:56;;;;;;;29.80;16.75;;;;;;;-5.66;79.78;98082.03;5055416;28;20055;-58
2022/01/05 06:10:22;;;;;;;32.33;16.67;;;;;;;-5.77;79.49;98081.84;5055507;28;20232;-58
2022/01/05 06:12:48;;;;;;;30.13;16.13;;;;;;;-5.77;80.27;98071.75;5047880;28;20095;-58
2022/01/05 06:15:13;;;;;;;37.10;17.05;;;;;;;-5.61;80.18;98085.50;5043920;28;20016;-57
2022/01/05 06:17:39;;;;;;;28.83;15.88;;;;;;;-5.77;78.12;98077.66;5055282;28;20053;-57
2022/01/05 06:20:05;;;;;;;29.00;14.60;;;;;;;-5.63;78.02;98094.69;5055782;28;20344;-57
2022/01/05 06:22:32;;;;;;;33.17;16.63;;;;;;;-5.64;79.58;98100.53;5057708;28;20351;-57
2022/01/05 06:24:57;;;;;;;32.53;15.00;;;;;;;-5.60;79.40;98082.13;5056483;28;20094;-58
2022/01/05 06:27:23;;;;;;;28.05;15.40;;;;;;;-5.45;78.74;98086.59;5041067;28;20102;-57
2022/01/05 06:29:48;;;;;;;27.35;14.48;;;;;;;-5.61;77.98;98083.81;5040954;28;20030;-58
2022/01/05 06:32:14;;;;;;;26.63;14.50;;;;;;;-5.72;78.15;98062.59;5050528;28;20052;-58
2022/01/05 06:34:40;;;;;;;27.35;14.23;;;;;;;-5.62;78.75;98084.63;5049825;28;20028;-57
2022/01/05 06:37:06;;;;;;;29.23;14.88;;;;;;;-5.66;78.94;98082.03;5053447;28;20084;-58
2022/01/05 06:39:31;;;;;;;27.58;13.40;;;;;;;-5.76;78.69;98083.53;5047553;28;20144;-58
2022/01/05 06:41:57;;;;;;;32.67;16.23;;;;;;;-5.60;78.94;98083.00;5058489;28;20025;-58
2022/01/05 06:44:23;;;;;;;29.67;15.27;;;;;;;-5.68;77.78;98076.13;5041811;28;20274;-57
2022/01/05 06:46:48;;;;;;;28.58;14.23;;;;;;;-5.66;78.71;98071.94;5043162;28;20092;-58
2022/01/05 06:49:14;;;;;;;24.58;13.32;;;;;;;-5.67;78.85;98071.09;5060761;28;20033;-57
2022/01/05 06:51:40;;;;;;;25.92;13.68;;;;;;;-5.80;78.53;98072.56;5044272;28;20021;-57
2022/01/05 06:54:05;;;;;;;24.25;12.20;;;;;;;-5.84;79.47;98068.28;5043782;28;20052;-58
2022/01/05 06:56:31;;;;;;;28.00;14.52;;;;;;;-5.67;77.92;98081.19;5044019;28;20033;-58
2022/01/05 06:58:56;;;;;;;23.42;12.52;;;;;;;-5.79;78.06;98069.22;5050896;28;20032;-57
2022/01/05 07:01:22;;;;;;;22.33;11.48;;;;;;;-6.02;80.09;98073.88;5054773;28;20025;-58
2022/01/05 07:03:47;;;;;;;29.08;14.35;;;;;;;-5.84;78.93;98068.28;5046520;28;20033;-58
2022/01/05 07:06:13;;;;;;;21.92;12.75;;;;;;;-5.78;78.86;98063.34;5057996;28;20035;-58
2022/01/05 07:08:39;;;;;;;27.20;13.82;;;;;;;-5.82;79.10;98056.56;5058766;28;20037;-58
2022/01/05 07:11:05;;;;;;;25.05;13.73;;;;;;;-5.76;79.28;98058.34;5060468;28;20056;-57
2022/01/05 07:13:31;;;;;;;21.88;11.50;;;;;;;-5.91;78.39;98051.38;5060331;28;20191;-57
2022/01/05 07:15:56;;;;;;;24.77;13.70;;;;;;;-5.69;79.99;98041.66;5057863;28;20063;-59
2022/01/05 07:18:22;;;;;;;17.13;10.43;;;;;;;-6.08;80.13;98046.06;5057898;28;20024;-58
2022/01/05 07:20:48;;;;;;;23.67;13.23;;;;;;;-5.94;79.21;98031.16;5047311;28;20028;-59
2022/01/05 07:23:14;;;;;;;27.88;14.05;;;;;;;-5.81;79.75;98030.53;5043617;28;20326;-57
2022/01/05 07:25:40;;;;;;;25.45;14.20;;;;;;;-5.64;79.79;98022.38;5043775;28;20071;-57
2022/01/05 07:28:05;;;;;;;21.10;11.38;;;;;;;-5.95;80.47;98022.72;5046152;28;20040;-57
2022/01/05 07:30:31;;;;;;;25.80;12.98;;;;;;;-5.63;79.79;98014.00;5057546;28;20251;-58
2022/01/05 07:32:56;;;;;;;25.92;13.35;;;;;;;-5.54;79.37;98014.16;5041939;28;20094;-58
2022/01/05 07:35:22;;;;;;;22.98;13.73;;;;;;;-5.53;79.20;98023.41;5042819;28;20029;-57
2022/01/05 07:37:47;;;;;;;27.77;15.30;;;;;;;-5.47;79.83;98018.47;5042363;28;20053;-57
2022/01/05 07:40:13;;;;;;;21.65;11.35;;;;;;;-5.95;80.02;98016.84;5055553;28;20062;-59
2022/01/05 07:42:39;;;;;;;25.30;12.43;;;;;;;-5.95;79.66;98019.38;5044395;28;20021;-58
2022/01/05 07:45:07;;;;;;;24.92;14.32;;;;;;;-6.21;80.17;97953.44;5050345;28;20041;-59
2022/01/05 07:47:33;;;;;;;26.55;14.70;;;;;;;-5.84;80.27;98006.94;5055144;28;20029;-59
2022/01/05 07:49:58;;;;;;;25.50;14.88;;;;;;;-5.61;80.85;97994.72;5054686;28;20056;-58
2022/01/05 07:52:24;;;;;;;25.55;12.90;;;;;;;-5.78;79.07;97995.28;5055327;28;20529;-57
2022/01/05 07:54:52;;;;;;;27.40;14.43;;;;;;;-5.95;81.07;97974.03;5047449;28;20277;-58
2022/01/05 07:57:18;;;;;;;23.27;14.23;;;;;;;-5.82;80.64;97975.06;5056197;28;20333;-58
2022/01/05 07:59:44;;;;;;;16.98;9.85;;;;;;;-5.99;79.74;97982.38;5057562;28;20104;-58
2022/01/05 08:02:09;;;;;;;28.67;13.88;;;;;;;-5.99;80.73;97987.41;5040161;28;20056;-57
2022/01/05 08:04:35;;;;;;;25.17;13.88;;;;;;;-5.80;81.22;97973.41;5054708;28;20040;-58
2022/01/05 08:07:01;;;;;;;22.30;12.88;;;;;;;-5.86;80.18;97963.22;5055973;28;20051;-58
2022/01/05 08:09:29;;;;;;;23.52;11.88;;;;;;;-5.91;80.78;97964.00;5045992;28;20033;-58
2022/01/05 08:11:55;;;;;;;24.17;12.48;;;;;;;-5.82;81.14;97957.41;5049729;28;20555;-58
2022/01/05 08:14:21;;;;;;;25.55;12.50;;;;;;;-6.04;79.99;97908.38;5056122;28;20123;-58
2022/01/05 08:16:47;;;;;;;23.55;12.95;;;;;;;-5.53;81.27;97940.19;5055689;28;20021;-57
2022/01/05 08:19:12;;;;;;;22.92;13.50;;;;;;;-5.42;81.47;97935.31;5054954;28;20338;-58
2022/01/05 08:21:38;;;;;;;24.02;11.73;;;;;;;-5.59;80.95;97935.06;5057926;28;20025;-58
2022/01/05 08:24:04;;;;;;;23.60;13.57;;;;;;;-5.43;81.19;97918.47;5042121;28;20033;-58
2022/01/05 08:26:29;;;;;;;22.27;12.02;;;;;;;-5.64;79.25;97909.78;5058104;28;20033;-57
2022/01/05 08:28:55;;;;;;;25.20;12.32;;;;;;;-5.58;81.21;97909.03;5041639;28;20612;-58
2022/01/05 08:31:20;;;;;;;18.48;10.57;;;;;;;-5.81;81.72;97896.94;5054760;28;20020;-58
2022/01/05 08:33:46;;;;;;;20.63;11.35;;;;;;;-5.85;81.88;97902.75;5045559;28;20045;-58
2022/01/05 08:36:12;;;;;;;21.65;10.93;;;;;;;-5.81;82.04;97899.47;5050028;28;20070;-58
2022/01/05 08:38:37;;;;;;;21.73;11.20;;;;;;;-5.88;83.10;97886.78;5056079;28;20482;-58
2022/01/05 08:41:03;;;;;;;21.63;11.48;;;;;;;-5.81;82.76;97881.81;5056117;28;20332;-58
2022/01/05 08:43:29;;;;;;;23.05;11.95;;;;;;;-5.66;81.16;97875.28;5056143;28;20018;-57
2022/01/05 08:45:54;;;;;;;20.75;12.30;;;;;;;-5.65;80.76;97864.41;5057759;28;20032;-58
2022/01/05 08:48:20;;;;;;;19.30;10.98;;;;;;;-5.43;81.00;97868.91;5041121;28;20041;-56
2022/01/05 08:50:46;;;;;;;22.10;12.15;;;;;;;-5.25;80.52;97867.41;5041453;28;20116;-57
2022/01/05 08:53:12;;;;;;;22.35;11.43;;;;;;;-5.60;80.23;97845.13;5056532;28;20035;-57
2022/01/05 08:55:40;;;;;;;21.90;10.82;;;;;;;-5.96;80.33;97779.13;5056124;28;20029;-58
2022/01/05 08:58:07;;;;;;;21.60;11.23;;;;;;;-5.47;80.59;97839.41;5056246;28;20036;-57
2022/01/05 09:00:33;;;;;;;19.45;10.95;;;;;;;-5.56;81.70;97836.75;5055386;28;20237;-58
2022/01/05 09:03:00;;;;;;;20.10;10.88;;;;;;;-5.56;82.44;97846.84;5050907;28;20067;-58
2022/01/05 09:05:26;;;;;;;22.65;8.50;;;;;;;-5.81;81.14;97830.59;5052177;28;20109;-58
2022/01/05 09:07:51;;;;;;;21.75;11.25;;;;;;;-5.62;82.50;97821.56;5043383;28;20100;-58
2022/01/05 09:10:17;;;;;;;22.42;11.02;;;;;;;-5.48;81.52;97814.19;5055914;28;20013;-58
2022/01/05 09:12:44;;;;;;;21.20;11.48;;;;;;;-5.61;82.27;97811.50;5058016;28;20051;-58
2022/01/05 09:15:09;;;;;;;21.63;10.98;;;;;;;-5.39;81.76;97809.22;5054603;28;20096;-58
2022/01/05 09:17:35;;;;;;;23.00;10.35;;;;;;;-5.43;81.89;97818.44;5056975;28;20029;-58
2022/01/05 09:20:01;;;;;;;23.38;11.40;;;;;;;-5.57;82.10;97793.06;5041912;28;20033;-57
2022/01/05 09:22:27;;;;;;;21.23;11.52;;;;;;;-5.39;81.85;97800.00;5052099;28;20033;-58
2022/01/05 09:24:53;;;;;;;21.27;11.30;;;;;;;-5.38;82.59;97791.59;5045916;28;20025;-57
2022/01/05 09:27:19;;;;;;;18.73;10.75;;;;;;;-5.29;81.46;97795.88;5041418;28;20032;-58
2022/01/05 09:29:46;;;;;;;24.20;11.15;;;;;;;-5.43;82.68;97782.28;5040562;28;20102;-58
2022/01/05 09:32:11;;;;;;;19.10;10.70;;;;;;;-5.47;81.07;97768.81;5043333;28;20054;-58
2022/01/05 09:34:41;;;;;;;18.13;10.60;;;;;;;-5.44;83.01;97768.84;5044707;28;20080;-58
2022/01/05 09:37:15;;;;;;;23.45;11.30;;;;;;;-5.46;81.82;97745.25;5040618;28;20029;-58
2022/01/05 09:42:24;;;;;;;23.73;11.82;;;;;;;-5.20;82.04;97732.94;5023601;28;20033;-58
2022/01/05 09:44:52;;;;;;;21.55;11.65;;;;;;;-5.67;82.89;97665.22;5048457;28;20037;-58
2022/01/05 09:47:45;;;;;;;22.77;10.80;;;;;;;-5.35;81.90;97729.41;5041405;28;20029;-58
2022/01/05 09:50:13;;;;;;;25.50;12.10;;;;;;;-5.50;82.47;97637.66;5040735;28;20097;-57
2022/01/05 09:52:42;;;;;;;22.80;11.38;;;;;;;-5.25;83.16;97701.75;5040465;28;20041;-58
2022/01/05 09:55:10;;;;;;;24.42;11.32;;;;;;;-5.22;82.71;97680.75;5054130;28;20111;-58
2022/01/05 09:57:38;;;;;;;16.17;10.23;;;;;;;-5.26;83.62;97682.44;5044574;28;20025;-58
2022/01/05 10:00:05;;;;;;;19.90;11.27;;;;;;;-5.21;82.84;97673.19;5043029;28;20518;-58
2022/01/05 10:02:31;;;;;;;20.83;10.63;;;;;;;-5.30;82.24;97657.13;5047920;28;20028;-57
2022/01/05 10:04:58;;;;;;;20.55;10.15;;;;;;;-5.47;82.44;97639.34;5048132;28;20029;-58
2022/01/05 10:07:24;;;;;;;21.63;11.60;;;;;;;-5.40;82.80;97641.94;5040320;28;20091;-58
2022/01/05 10:09:51;;;;;;;18.10;9.80;;;;;;;-5.56;84.00;97635.06;5040958;28;20332;-58
2022/01/05 10:12:16;;;;;;;21.08;11.15;;;;;;;-5.46;84.34;97621.69;5043439;28;20103;-58
2022/01/05 10:14:44;;;;;;;19.50;12.90;;;;;;;-5.75;83.71;97549.19;5044193;28;20361;-58
2022/01/05 10:17:13;;;;;;;25.02;13.05;;;;;;;-5.27;83.22;97630.28;5043118;28;20100;-59
2022/01/05 10:19:41;;;;;;;31.77;13.50;;;;;;;-5.78;83.60;97541.59;5043839;28;20076;-59
2022/01/05 10:22:39;;;;;;;28.33;14.63;;;;;;;-5.14;83.35;97592.53;5042161;28;20041;-58
2022/01/05 10:25:15;;;;;;;29.42;14.40;;;;;;;-5.25;84.60;97612.63;5048507;28;20079;-58
2022/01/05 10:27:42;;;;;;;18.70;11.40;;;;;;;-5.52;85.17;97580.47;5043996;28;20265;-58
2022/01/05 10:30:12;;;;;;;26.63;14.55;;;;;;;-5.38;84.18;97597.38;5043667;28;20036;-58
2022/01/05 10:32:37;;;;;;;21.80;10.95;;;;;;;-5.41;83.90;97578.88;5044708;28;20029;-59
2022/01/05 10:35:20;;;;;;;24.77;12.82;;;;;;;-5.45;84.43;97562.03;5038616;28;20349;-58
2022/01/05 10:37:56;;;;;;;29.80;16.75;;;;;;;-5.59;84.82;97519.06;5052216;28;20037;-58
2022/01/05 10:40:22;;;;;;;32.25;17.48;;;;;;;-5.33;85.47;97552.03;5049531;28;20022;-57
2022/01/05 10:42:51;;;;;;;33.67;17.80;;;;;;;-5.32;84.27;97557.91;5049226;28;20033;-58
2022/01/05 10:45:20;;;;;;;31.58;18.88;;;;;;;-5.77;85.89;97481.94;5055269;28;20025;-58
2022/01/05 10:48:05;;;;;;;32.17;19.13;;;;;;;-5.31;84.44;97534.41;5045996;28;20033;-57
2022/01/05 10:50:31;;;;;;;28.52;18.02;;;;;;;-5.29;84.95;97536.06;5056939;28;20127;-59
2022/01/05 10:52:57;;;;;;;34.05;18.88;;;;;;;-5.25;86.02;97554.59;5044159;28;20021;-58
2022/01/05 10:55:26;;;;;;;32.70;17.02;;;;;;;-5.63;85.61;97467.78;5060852;28;20040;-58
2022/01/05 10:57:57;;;;;;;26.23;15.60;;;;;;;-5.62;85.10;97471.13;5042044;28;20032;-59
2022/01/05 11:00:50;;;;;;;26.20;16.38;;;;;;;-5.01;84.95;97537.94;5043796;28;20037;-58
2022/01/05 11:03:18;;;;;;;27.40;14.05;;;;;;;-5.06;84.12;97525.28;5041760;28;20033;-58
2022/01/05 11:06:04;;;;;;;23.15;13.55;;;;;;;-5.05;84.47;97522.75;5044295;28;20250;-58
2022/01/05 11:08:47;;;;;;;21.85;13.80;;;;;;;-5.59;85.52;97445.94;5057544;28;20109;-58
2022/01/05 11:11:32;;;;;;;22.40;12.90;;;;;;;-5.17;86.46;97500.00;5060076;28;20037;-58
2022/01/05 11:13:57;;;;;;;23.60;13.13;;;;;;;-5.04;85.73;97489.13;5060269;28;20111;-58
2022/01/05 11:16:27;;;;;;;27.10;14.65;;;;;;;-5.01;85.20;97495.03;5058997;28;20083;-57